createdAt,value
2023-11-24T00:00:00.616Z,0.88
2023-11-24T00:02:40.641Z,0.94
2023-11-24T00:05:20.661Z,0.82
2023-11-24T00:08:00.730Z,0.82
2023-11-24T00:10:46.293Z,0.86
2023-11-24T00:13:25.567Z,0.95
2023-11-24T00:16:06.103Z,0.68
2023-11-24T00:18:45.545Z,0.74
2023-11-24T00:21:26.482Z,0.82
2023-11-24T00:24:07.134Z,0.77
2023-11-24T00:26:51.613Z,0.79
2023-11-24T00:29:30.909Z,0.82
2023-11-24T00:32:11.808Z,0.71
2023-11-24T00:34:51.117Z,0.82
2023-11-24T00:37:31.265Z,0.78
2023-11-24T00:40:15.897Z,0.71
2023-11-24T00:43:00.256Z,0.69
2023-11-24T00:45:39.632Z,0.65
2023-11-24T00:48:18.977Z,0.55
2023-11-24T00:50:58.291Z,0.70
2023-11-24T00:53:37.574Z,0.57
2023-11-24T00:56:17.388Z,0.60
2023-11-24T00:59:02.087Z,0.52
2023-11-24T01:01:41.453Z,0.53
2023-11-24T01:04:20.890Z,0.41
2023-11-24T01:07:00.325Z,0.46
2023-11-24T01:09:39.705Z,0.48
2023-11-24T01:12:19.030Z,0.44
2023-11-24T01:15:03.390Z,0.49
2023-11-24T01:17:43.026Z,0.38
2023-11-24T01:20:23.979Z,0.37
2023-11-24T01:23:03.374Z,0.39
2023-11-24T01:25:43.608Z,0.43
2023-11-24T01:28:22.917Z,0.48
2023-11-24T01:31:07.311Z,0.44
2023-11-24T01:33:46.647Z,0.39
2023-11-24T01:36:26.025Z,0.44
2023-11-24T01:39:07.549Z,0.49
2023-11-24T01:41:48.063Z,0.42
2023-11-24T01:44:27.362Z,0.38
2023-11-24T01:47:12.586Z,0.30
2023-11-24T01:49:52.613Z,0.34
2023-11-24T01:52:32.409Z,0.47
2023-11-24T01:55:15.300Z,0.43
2023-11-24T01:57:57.373Z,0.47
2023-11-24T02:00:36.750Z,0.41
2023-11-24T02:03:21.220Z,0.39
2023-11-24T02:06:01.397Z,0.36
2023-11-24T02:08:41.028Z,0.39
2023-11-24T02:11:20.521Z,0.37
2023-11-24T02:13:59.841Z,0.39
2023-11-24T02:16:39.323Z,0.37
2023-11-24T02:19:24.081Z,0.37
2023-11-24T02:22:03.690Z,0.33
2023-11-24T02:24:48.105Z,0.40
2023-11-24T02:27:27.837Z,0.34
2023-11-24T02:30:07.884Z,0.57
2023-11-24T02:32:47.228Z,0.45
2023-11-24T02:35:28.273Z,0.44
2023-11-24T02:38:07.622Z,0.35
2023-11-24T02:40:52.762Z,0.45
2023-11-24T02:43:32.288Z,0.36
2023-11-24T02:46:11.567Z,0.41
2023-11-24T02:48:51.920Z,0.32
2023-11-24T02:51:31.952Z,0.46
2023-11-24T02:54:11.406Z,0.38
2023-11-24T02:56:55.819Z,0.39
2023-11-24T02:59:35.284Z,0.47
2023-11-24T03:02:14.879Z,0.49
2023-11-24T03:04:54.548Z,0.51
2023-11-24T03:07:34.454Z,0.50
2023-11-24T03:10:14.871Z,0.56
2023-11-24T03:12:59.565Z,0.46
2023-11-24T03:15:38.838Z,0.58
2023-11-24T03:18:19.220Z,0.49
2023-11-24T03:20:58.560Z,0.59
2023-11-24T03:23:37.945Z,0.55
2023-11-24T03:26:17.909Z,0.54
2023-11-24T03:29:02.257Z,0.47
2023-11-24T03:31:41.776Z,0.45
2023-11-24T03:34:21.124Z,0.61
2023-11-24T03:37:00.482Z,0.50
2023-11-24T03:39:39.808Z,0.61
2023-11-24T03:42:19.196Z,0.60
2023-11-24T03:45:03.595Z,0.55
2023-11-24T03:47:44.104Z,0.59
2023-11-24T03:50:24.649Z,0.84
2023-11-24T03:53:03.975Z,0.54
2023-11-24T03:55:43.284Z,0.71
2023-11-24T03:58:22.672Z,0.90
2023-11-24T04:01:07.515Z,0.78
2023-11-24T04:03:46.961Z,0.65
2023-11-24T04:06:27.069Z,0.89
2023-11-24T04:09:07.035Z,0.86
2023-11-24T04:11:46.720Z,0.85
2023-11-24T04:14:26.006Z,0.94
2023-11-24T04:17:12.003Z,0.79
2023-11-24T04:19:51.278Z,0.83
2023-11-24T04:22:30.586Z,0.93
2023-11-24T04:25:10.661Z,1.88
2023-11-24T04:27:50.068Z,0.98
2023-11-24T04:30:29.610Z,0.86
2023-11-24T04:33:14.489Z,1.06
2023-11-24T04:35:57.493Z,0.98
2023-11-24T04:38:37.064Z,1.07
2023-11-24T04:41:16.929Z,1.02
2023-11-24T04:43:56.205Z,0.87
2023-11-24T04:46:35.516Z,1.00
2023-11-24T04:49:20.135Z,0.87
2023-11-24T04:52:00.484Z,1.03
2023-11-24T04:54:39.855Z,0.96
2023-11-24T04:57:19.283Z,0.95
2023-11-24T04:59:58.582Z,0.78
2023-11-24T05:02:37.977Z,1.16
2023-11-24T05:05:23.320Z,1.03
2023-11-24T05:08:02.601Z,1.07
2023-11-24T05:10:41.954Z,1.11
2023-11-24T05:13:21.245Z,0.97
2023-11-24T05:16:00.674Z,1.03
2023-11-24T05:18:40.095Z,0.93
2023-11-24T05:21:24.479Z,1.00
2023-11-24T05:24:03.805Z,0.84
2023-11-24T05:26:43.093Z,1.02
2023-11-24T05:29:22.508Z,1.06
2023-11-24T05:32:02.298Z,1.00
2023-11-24T05:34:42.901Z,0.97
2023-11-24T05:37:27.330Z,1.17
2023-11-24T05:40:10.158Z,0.96
2023-11-24T05:42:49.530Z,1.09
2023-11-24T05:45:28.897Z,1.02
2023-11-24T05:48:08.572Z,1.29
2023-11-24T05:50:47.917Z,1.06
2023-11-24T05:53:32.299Z,1.28
2023-11-24T05:56:13.330Z,1.17
2023-11-24T05:58:53.660Z,1.09
2023-11-24T06:01:32.981Z,1.17
2023-11-24T06:04:13.001Z,1.26
2023-11-24T06:06:52.588Z,1.09
2023-11-24T06:09:37.001Z,0.95
2023-11-24T06:12:16.831Z,1.08
2023-11-24T06:14:56.133Z,2.13
2023-11-24T06:17:35.468Z,1.02
2023-11-24T06:20:16.177Z,1.26
2023-11-24T06:22:56.868Z,1.17
2023-11-24T06:25:41.268Z,0.97
2023-11-24T06:28:20.568Z,1.11
2023-11-24T06:30:59.863Z,0.92
2023-11-24T06:33:39.272Z,1.21
2023-11-24T06:36:18.995Z,1.18
2023-11-24T06:38:58.293Z,1.28
2023-11-24T06:41:44.268Z,1.34
2023-11-24T06:44:25.013Z,1.20
2023-11-24T06:47:05.229Z,1.06
2023-11-24T06:49:44.929Z,1.65
2023-11-24T06:52:24.712Z,1.50
2023-11-24T06:55:04.472Z,1.58
2023-11-24T06:57:48.951Z,1.33
2023-11-24T07:00:28.929Z,1.36
2023-11-24T07:03:08.250Z,1.33
2023-11-24T07:05:49.040Z,1.49
2023-11-24T07:08:28.617Z,1.72
2023-11-24T07:11:07.884Z,1.65
2023-11-24T07:13:53.598Z,1.47
2023-11-24T07:16:33.180Z,1.40
2023-11-24T07:19:12.909Z,1.65
2023-11-24T07:21:52.241Z,1.73
2023-11-24T07:24:31.834Z,1.49
2023-11-24T07:27:11.794Z,1.37
2023-11-24T07:29:56.159Z,1.46
2023-11-24T07:32:36.001Z,1.45
2023-11-24T07:35:16.393Z,1.41
2023-11-24T07:37:55.712Z,1.43
2023-11-24T07:40:35.033Z,1.18
2023-11-24T07:43:14.316Z,1.43
2023-11-24T07:45:58.765Z,1.27
2023-11-24T07:48:38.093Z,1.42
2023-11-24T07:51:17.429Z,1.37
2023-11-24T07:53:57.659Z,1.41
2023-11-24T07:56:37.624Z,1.64
2023-11-24T07:59:17.617Z,1.50
2023-11-24T08:02:02.204Z,1.79
2023-11-24T08:04:42.521Z,1.34
2023-11-24T08:07:21.925Z,1.33
2023-11-24T08:10:01.272Z,1.46
2023-11-24T08:12:40.631Z,1.49
2023-11-24T08:15:21.509Z,1.65
2023-11-24T08:18:06.480Z,1.56
2023-11-24T08:20:45.844Z,1.43
2023-11-24T08:23:25.203Z,1.52
2023-11-24T08:26:05.842Z,1.41
2023-11-24T08:28:45.450Z,1.47
2023-11-24T08:31:24.923Z,1.11
2023-11-24T08:34:11.042Z,1.34
2023-11-24T08:36:51.016Z,1.36
2023-11-24T08:39:30.352Z,1.59
2023-11-24T08:42:10.013Z,1.60
2023-11-24T08:44:50.377Z,1.74
2023-11-24T08:47:30.078Z,1.82
2023-11-24T08:50:16.541Z,1.82
2023-11-24T08:52:55.821Z,1.21
2023-11-24T08:55:35.208Z,1.65
2023-11-24T08:58:14.618Z,1.62
2023-11-24T09:00:55.533Z,1.73
2023-11-24T09:03:34.980Z,1.65
2023-11-24T09:06:19.606Z,1.58
2023-11-24T09:09:00.881Z,1.16
2023-11-24T09:11:40.117Z,1.42
2023-11-24T09:14:19.468Z,1.23
2023-11-24T09:16:58.912Z,1.33
2023-11-24T09:19:38.980Z,2.08
2023-11-24T09:22:23.861Z,1.44
2023-11-24T09:25:04.701Z,1.56
2023-11-24T09:27:44.055Z,1.14
2023-11-24T09:30:23.449Z,1.08
2023-11-24T09:33:03.065Z,1.17
2023-11-24T09:35:42.438Z,1.78
2023-11-24T09:38:26.804Z,1.92
2023-11-24T09:41:10.966Z,1.14
2023-11-24T09:43:51.044Z,0.94
2023-11-24T09:46:39.772Z,0.74
2023-11-24T09:49:28.112Z,1.24
2023-11-24T09:52:08.105Z,1.17
2023-11-24T09:54:52.602Z,0.99
2023-11-24T09:57:32.011Z,1.04
2023-11-24T10:00:12.585Z,1.06
2023-11-24T10:02:54.475Z,1.24
2023-11-24T10:05:34.621Z,0.89
2023-11-24T10:08:14.258Z,1.42
2023-11-24T10:10:58.721Z,2.71
2023-11-24T10:13:38.066Z,5.92
2023-11-24T10:16:18.615Z,4.76
2023-11-24T10:18:59.433Z,1.21
2023-11-24T10:21:39.012Z,0.73
2023-11-24T10:24:18.531Z,0.64
2023-11-24T10:27:02.953Z,0.82
2023-11-24T10:29:42.228Z,0.76
2023-11-24T10:32:21.624Z,0.74
2023-11-24T10:35:02.921Z,0.85
2023-11-24T10:37:44.835Z,0.78
2023-11-24T10:40:26.379Z,0.69
2023-11-24T10:43:12.616Z,0.80
2023-11-24T10:45:56.337Z,0.73
2023-11-24T10:48:41.837Z,0.81
2023-11-24T10:51:25.879Z,0.84
2023-11-24T10:54:10.460Z,1.28
2023-11-24T10:56:52.939Z,1.08
2023-11-24T10:59:41.074Z,0.93
2023-11-24T11:02:23.249Z,0.90
2023-11-24T11:05:15.671Z,1.02
2023-11-24T11:08:08.616Z,1.81
2023-11-24T11:10:52.220Z,5.17
2023-11-24T11:13:32.533Z,1.66
2023-11-24T11:16:19.982Z,0.93
2023-11-24T11:19:04.774Z,1.68
2023-11-24T11:21:45.932Z,1.20
2023-11-24T11:24:31.589Z,0.51
2023-11-24T11:27:11.375Z,0.56
2023-11-24T11:29:50.692Z,0.69
2023-11-24T11:32:40.181Z,0.56
2023-11-24T11:35:19.760Z,0.44
2023-11-24T11:38:06.718Z,0.78
2023-11-24T11:40:47.293Z,0.47
2023-11-24T11:43:27.718Z,0.46
2023-11-24T11:46:07.439Z,0.44
2023-11-24T11:48:55.404Z,0.39
2023-11-24T11:51:37.124Z,0.28
2023-11-24T11:54:17.660Z,0.24
2023-11-24T11:56:57.037Z,0.48
2023-11-24T11:59:36.404Z,0.36
2023-11-24T12:02:19.665Z,0.37
2023-11-24T12:05:06.311Z,0.54
2023-11-24T12:07:45.734Z,0.42
2023-11-24T12:10:26.837Z,0.52
2023-11-24T12:13:07.108Z,0.62
2023-11-24T12:15:47.072Z,0.46
2023-11-24T12:18:27.247Z,0.45
2023-11-24T12:21:12.779Z,0.70
2023-11-24T12:23:55.531Z,0.59
2023-11-24T12:26:40.972Z,0.45
2023-11-24T12:29:21.234Z,0.72
2023-11-24T12:32:00.860Z,0.62
2023-11-24T12:34:44.119Z,1.73
2023-11-24T12:37:28.571Z,2.12
2023-11-24T12:40:09.055Z,1.50
2023-11-24T12:42:49.175Z,0.71
2023-11-24T12:45:29.189Z,0.82
2023-11-24T12:48:12.741Z,0.62
2023-11-24T12:50:54.295Z,0.74
2023-11-24T12:53:39.341Z,0.66
2023-11-24T12:56:18.971Z,0.43
2023-11-24T12:58:58.591Z,0.53
2023-11-24T13:01:39.524Z,0.64
2023-11-24T13:04:19.341Z,0.47
2023-11-24T13:06:58.703Z,0.61
2023-11-24T13:09:44.037Z,0.66
2023-11-24T13:12:23.405Z,0.66
2023-11-24T13:15:02.902Z,0.50
2023-11-24T13:17:42.753Z,0.68
2023-11-24T13:20:23.371Z,0.69
2023-11-24T13:23:02.949Z,1.42
2023-11-24T13:25:47.337Z,1.72
2023-11-24T13:28:26.790Z,1.15
2023-11-24T13:31:06.600Z,1.36
2023-11-24T13:33:45.963Z,0.90
2023-11-24T13:36:25.268Z,0.88
2023-11-24T13:39:05.896Z,0.95
2023-11-24T13:41:50.519Z,1.29
2023-11-24T13:44:32.179Z,0.81
2023-11-24T13:47:14.962Z,0.70
2023-11-24T13:49:56.258Z,0.69
2023-11-24T13:52:35.626Z,0.55
2023-11-24T13:55:16.067Z,0.74
2023-11-24T13:58:01.225Z,1.32
2023-11-24T14:00:40.535Z,0.86
2023-11-24T14:03:19.930Z,1.32
2023-11-24T14:05:59.353Z,1.75
2023-11-24T14:08:39.293Z,0.71
2023-11-24T14:11:18.693Z,0.64
2023-11-24T14:14:04.252Z,0.56
2023-11-24T14:16:43.737Z,0.59
2023-11-24T14:19:23.580Z,0.63
2023-11-24T14:22:06.783Z,1.02
2023-11-24T14:24:46.181Z,1.58
2023-11-24T14:27:26.574Z,1.82
2023-11-24T14:30:12.436Z,1.08
2023-11-24T14:32:53.614Z,1.21
2023-11-24T14:35:34.133Z,1.37
2023-11-24T14:38:13.582Z,1.10
2023-11-24T14:40:52.887Z,0.80
2023-11-24T14:43:32.287Z,1.00
2023-11-24T14:46:18.430Z,1.33
2023-11-24T14:48:59.138Z,0.39
2023-11-24T14:51:40.687Z,1.22
2023-11-24T14:54:20.799Z,0.79
2023-11-24T14:57:00.232Z,0.94
2023-11-24T14:59:39.574Z,1.24
2023-11-24T15:02:25.794Z,0.81
2023-11-24T15:05:07.985Z,1.02
2023-11-24T15:07:49.200Z,1.98
2023-11-24T15:10:28.563Z,2.64
2023-11-24T15:13:10.345Z,1.40
2023-11-24T15:15:50.706Z,1.05
2023-11-24T15:18:35.101Z,0.37
2023-11-24T15:21:26.306Z,0.83
2023-11-24T15:24:06.602Z,0.60
2023-11-24T15:26:45.991Z,1.25
2023-11-24T15:29:25.435Z,0.72
2023-11-24T15:32:08.959Z,0.80
2023-11-24T15:34:54.002Z,0.65
2023-11-24T15:37:33.309Z,0.69
2023-11-24T15:40:18.112Z,0.67
2023-11-24T15:42:57.975Z,0.90
2023-11-24T15:45:37.366Z,0.98
2023-11-24T15:48:16.727Z,0.46
2023-11-24T15:51:01.461Z,0.31
2023-11-24T15:53:41.416Z,1.64
2023-11-24T15:56:21.209Z,1.64
2023-11-24T15:59:07.537Z,0.66
2023-11-24T16:01:48.884Z,0.83
2023-11-24T16:04:34.839Z,0.71
2023-11-24T16:07:24.118Z,1.55
2023-11-24T16:10:16.258Z,1.92
2023-11-24T16:12:56.140Z,0.75
2023-11-24T16:15:35.418Z,0.74
2023-11-24T16:18:16.754Z,0.68
2023-11-24T16:20:56.226Z,1.04
2023-11-24T16:23:40.627Z,0.83
2023-11-24T16:26:19.919Z,1.07
2023-11-24T16:28:59.242Z,1.27
2023-11-24T16:31:42.510Z,0.77
2023-11-24T16:34:24.895Z,0.75
2023-11-24T16:37:04.356Z,0.82
2023-11-24T16:39:49.328Z,1.25
2023-11-24T16:42:28.665Z,1.78
2023-11-24T16:45:08.676Z,0.69
2023-11-24T16:47:49.826Z,0.71
2023-11-24T16:50:29.762Z,0.74
2023-11-24T16:53:09.048Z,0.75
2023-11-24T16:55:53.739Z,0.79
2023-11-24T16:58:33.073Z,0.75
2023-11-24T17:01:12.554Z,1.02
2023-11-24T17:03:51.955Z,0.89
2023-11-24T17:06:31.301Z,0.81
2023-11-24T17:09:13.938Z,0.67
2023-11-24T17:11:58.402Z,0.81
2023-11-24T17:14:37.691Z,0.69
2023-11-24T17:17:17.269Z,0.94
2023-11-24T17:19:56.972Z,0.76
2023-11-24T17:22:36.353Z,0.94
2023-11-24T17:25:27.868Z,1.38
2023-11-24T17:28:19.363Z,2.23
2023-11-24T17:30:59.014Z,2.23
2023-11-24T17:33:38.870Z,2.03
2023-11-24T17:36:18.493Z,1.69
2023-11-24T17:38:58.461Z,1.27
2023-11-24T17:41:37.907Z,1.24
2023-11-24T17:44:22.572Z,1.02
2023-11-24T17:47:03.338Z,1.51
2023-11-24T17:49:42.669Z,1.36
2023-11-24T17:52:22.294Z,1.22
2023-11-24T17:55:03.470Z,1.23
2023-11-24T17:57:43.097Z,1.28
2023-11-24T18:00:31.129Z,0.87
2023-11-24T18:03:10.941Z,1.26
2023-11-24T18:05:50.668Z,1.15
2023-11-24T18:08:35.024Z,1.18
2023-11-24T18:11:16.109Z,1.17
2023-11-24T18:13:55.401Z,0.97
2023-11-24T18:16:41.342Z,1.09
2023-11-24T18:19:20.736Z,1.01
2023-11-24T18:22:00.039Z,0.89
2023-11-24T18:24:39.400Z,1.31
2023-11-24T18:27:18.714Z,1.09
2023-11-24T18:29:58.973Z,0.82
2023-11-24T18:32:44.244Z,1.79
2023-11-24T18:35:23.887Z,0.72
2023-11-24T18:38:03.648Z,0.82
2023-11-24T18:40:43.056Z,1.26
2023-11-24T18:43:30.683Z,0.96
2023-11-24T18:46:18.476Z,1.29
2023-11-24T18:49:02.964Z,0.77
2023-11-24T18:51:42.309Z,0.82
2023-11-24T18:54:21.895Z,0.83
2023-11-24T18:57:01.144Z,0.76
2023-11-24T18:59:40.453Z,0.74
2023-11-24T19:02:19.919Z,0.70
2023-11-24T19:05:08.188Z,0.68
2023-11-24T19:07:47.605Z,1.32
2023-11-24T19:10:26.953Z,2.72
2023-11-24T19:13:06.514Z,1.68
2023-11-24T19:15:46.776Z,2.13
2023-11-24T19:18:26.486Z,1.70
2023-11-24T19:21:15.850Z,1.11
2023-11-24T19:23:57.960Z,1.66
2023-11-24T19:26:38.689Z,0.67
2023-11-24T19:29:18.072Z,0.61
2023-11-24T19:31:57.383Z,0.64
2023-11-24T19:34:36.768Z,0.94
2023-11-24T19:37:21.256Z,0.74
2023-11-24T19:40:00.623Z,0.71
2023-11-24T19:42:40.154Z,0.68
2023-11-24T19:45:19.621Z,0.76
2023-11-24T19:47:58.971Z,0.68
2023-11-24T19:50:38.248Z,0.62
2023-11-24T19:53:22.759Z,0.55
2023-11-24T19:56:02.246Z,0.52
2023-11-24T19:58:41.512Z,0.88
2023-11-24T20:01:27.976Z,0.68
2023-11-24T20:04:07.328Z,0.83
2023-11-24T20:06:46.609Z,0.80
2023-11-24T20:09:30.926Z,0.81
2023-11-24T20:12:11.772Z,0.66
2023-11-24T20:14:51.235Z,0.90
2023-11-24T20:17:30.741Z,2.49
2023-11-24T20:20:10.953Z,1.01
2023-11-24T20:22:50.915Z,0.88
2023-11-24T20:25:35.316Z,0.53
2023-11-24T20:28:15.220Z,0.73
2023-11-24T20:30:55.098Z,0.73
2023-11-24T20:33:34.354Z,0.79
2023-11-24T20:36:17.219Z,0.77
2023-11-24T20:38:57.179Z,0.69
2023-11-24T20:41:47.136Z,0.70
2023-11-24T20:44:30.569Z,0.79
2023-11-24T20:47:11.892Z,0.60
2023-11-24T20:49:52.707Z,0.58
2023-11-24T20:52:32.092Z,0.57
2023-11-24T20:55:14.976Z,0.91
2023-11-24T20:57:59.464Z,0.53
2023-11-24T21:00:38.826Z,0.49
2023-11-24T21:03:18.101Z,0.92
2023-11-24T21:05:57.466Z,0.78
2023-11-24T21:08:36.788Z,0.72
2023-11-24T21:11:16.448Z,0.45
2023-11-24T21:14:01.757Z,0.70
2023-11-24T21:16:41.043Z,0.71
2023-11-24T21:19:22.310Z,0.77
2023-11-24T21:22:02.228Z,0.77
2023-11-24T21:24:42.580Z,0.48
2023-11-24T21:27:23.059Z,0.65
2023-11-24T21:30:08.753Z,1.98
2023-11-24T21:32:48.164Z,0.91
2023-11-24T21:35:29.939Z,0.68
2023-11-24T21:38:09.990Z,0.75
2023-11-24T21:40:49.271Z,0.58
2023-11-24T21:43:28.589Z,0.60
2023-11-24T21:46:13.201Z,0.51
2023-11-24T21:48:52.643Z,0.42
2023-11-24T21:51:32.533Z,0.54
2023-11-24T21:54:11.848Z,0.71
2023-11-24T21:56:51.148Z,0.88
2023-11-24T21:59:30.422Z,0.83
2023-11-24T22:02:15.292Z,1.25
2023-11-24T22:04:54.866Z,0.72
2023-11-24T22:07:35.962Z,0.58
2023-11-24T22:10:16.835Z,0.67
2023-11-24T22:12:56.286Z,1.00
2023-11-24T22:15:35.889Z,1.12
2023-11-24T22:18:21.075Z,1.05
2023-11-24T22:21:00.407Z,0.72
2023-11-24T22:23:39.750Z,0.73
2023-11-24T22:26:25.003Z,0.64
2023-11-24T22:29:05.150Z,0.63
2023-11-24T22:31:44.457Z,0.57
2023-11-24T22:34:28.879Z,0.59
2023-11-24T22:37:08.391Z,0.45
2023-11-24T22:39:47.780Z,0.60
2023-11-24T22:42:27.302Z,0.76
2023-11-24T22:45:08.160Z,1.61
2023-11-24T22:47:47.463Z,2.28
2023-11-24T22:50:31.859Z,1.05
2023-11-24T22:53:11.243Z,0.46
2023-11-24T22:55:50.492Z,0.52
2023-11-24T22:58:29.775Z,0.45
2023-11-24T23:01:09.211Z,0.56
2023-11-24T23:03:48.571Z,0.61
2023-11-24T23:06:34.250Z,0.53
2023-11-24T23:09:14.837Z,0.43
2023-11-24T23:11:54.148Z,0.50
2023-11-24T23:14:34.997Z,0.38
2023-11-24T23:17:14.453Z,0.49
2023-11-24T23:19:53.768Z,0.49
2023-11-24T23:22:38.932Z,0.59
2023-11-24T23:25:18.514Z,0.62
2023-11-24T23:27:58.041Z,0.57
2023-11-24T23:30:38.093Z,0.59
2023-11-24T23:33:18.587Z,0.42
2023-11-24T23:35:59.522Z,0.48
2023-11-24T23:38:43.927Z,0.68
2023-11-24T23:41:23.769Z,0.50
2023-11-24T23:44:03.102Z,0.41
2023-11-24T23:46:43.632Z,0.66
2023-11-24T23:49:23.001Z,0.52
2023-11-24T23:52:02.432Z,0.58
2023-11-24T23:54:46.896Z,0.47
2023-11-24T23:57:27.096Z,0.36
